Flight Track Log - Related Links

Times and Time Zones

All times are in EST time to prevent confusion due to time zone crossing. See the ASQ4487 flight status page for this flight to view local times or setup timezone preferences in your user account.

Time Position Orientation Groundspeed Altitude Reporting Facility
EST Latitude Longitude Course Direction KTS MPH feet Rate Location/Type
Mon 12:48:53 PM 38.1833 -85.7500 270° West 134 154 1,300  Level Louisville TRACON
Mon 12:51:17 PM 38.2761 -85.8442 270° West 263 303 5,100 1,815 Climbing Indianapolis Center
Mon 12:52:18 PM 38.2417 -85.9244 241° Southwest 272 313 7,500 2,213 Climbing Indianapolis Center
Mon 12:53:00 PM 38.0633 -86.1267 261° West  Level FlightAware Approximate
Mon 12:53:19 PM 38.1892 -85.9983 228° Southwest 275 316 9,600  Level Indianapolis Center
Mon 12:54:00 PM 38.0500 -86.2446 270° West  Level FlightAware Approximate
Mon 12:55:22 PM 38.0700 -86.1744 229° Southwest 334 384 11,600  Level Indianapolis Center
Mon 12:56:23 PM 38.0042 -86.2700 229° Southwest 351 404 12,900 1,366 Climbing Indianapolis Center
Mon 12:57:25 PM 37.9242 -86.3875 229° Southwest 359 413 14,400 1,317 Climbing Indianapolis Center
Mon 12:58:26 PM 37.8472 -86.4736 221° Southwest 374 430 15,600 1,317 Climbing Indianapolis Center
Mon 12:59:28 PM 37.7589 -86.5428 212° Southwest 374 430 17,100 1,268 Climbing Indianapolis Center
Mon 01:00:29 PM 37.6731 -86.6108 212° Southwest 365 420 18,200 1,328 Climbing Indianapolis Center
Mon 01:01:30 PM 37.6039 -86.6975 225° Southwest 356 410 19,800 1,512 Climbing Indianapolis Center
Mon 01:02:32 PM 37.5406 -86.7897 229° Southwest 346 398 21,300 1,415 Climbing Indianapolis Center
Mon 01:03:33 PM 37.4844 -86.8725 230° Southwest 345 397 22,700 1,561 Climbing Indianapolis Center
Mon 01:04:35 PM 37.4128 -86.9783 230° Southwest 343 395 24,500 1,463 Climbing Indianapolis Center
Mon 01:05:36 PM 37.3525 -87.0669 229° Southwest 337 388 25,700 1,220 Climbing Indianapolis Center
Mon 01:06:38 PM 37.2919 -87.1561 230° Southwest 336 387 27,000 1,220 Climbing Indianapolis Center
Mon 01:07:39 PM 37.2297 -87.2447 229° Southwest 336 387 28,200 1,180 Climbing Indianapolis Center
Mon 01:08:40 PM 37.1697 -87.3325 229° Southwest 334 384 29,400 1,220 Climbing Indianapolis Center
Mon 01:09:42 PM 37.1103 -87.4192 229° Southwest 331 381 30,700 1,220 Climbing Indianapolis Center
Mon 01:10:43 PM 37.0506 -87.5050 229° Southwest 327 376 31,900 1,024 Climbing Indianapolis Center
Mon 01:11:45 PM 36.9925 -87.5911 230° Southwest 327 376 32,800 878 Climbing Indianapolis Center
Mon 01:12:46 PM 36.9317 -87.6764 228° Southwest 326 375 33,700 590 Climbing Indianapolis Center
Mon 01:13:47 PM 36.8706 -87.7644 229° Southwest 328 377 34,000 146 Climbing Indianapolis Center
Mon 01:14:49 PM 36.8058 -87.8581 229° Southwest 347 399 34,000  Level Indianapolis Center
Mon 01:15:50 PM 36.7239 -87.9758 229° Southwest 377 434 34,000  Level Indianapolis Center
Mon 01:16:52 PM 36.6497 -88.0817 229° Southwest 394 453 34,000  Level Indianapolis Center
Mon 01:17:53 PM 36.5722 -88.1914 229° Southwest 414 476 34,000  Level Indianapolis Center
Mon 01:18:55 PM 36.4942 -88.3014 229° Southwest 417 480 34,000  Level Indianapolis Center
Mon 01:20:19 PM 36.3933 -88.4450 229° Southwest 420 483 34,000  Level Memphis Center
Mon 01:21:20 PM 36.3153 -88.5539 228° Southwest 420 483 34,000  Level Memphis Center
Mon 01:22:22 PM 36.2214 -88.6869 229° Southwest 421 484 34,000  Level Memphis Center
Mon 01:23:24 PM 36.1425 -88.7961 228° Southwest 421 484 34,000  Level Memphis Center
Mon 01:24:25 PM 36.0622 -88.9061 228° Southwest 422 486 34,000  Level Memphis Center
Mon 01:25:27 PM 35.9850 -89.0150 229° Southwest 422 486 34,000  Level Memphis Center
Mon 01:26:29 PM 35.9064 -89.1225 228° Southwest 420 483 34,000  Level Memphis Center
Mon 01:27:30 PM 35.8297 -89.2289 228° Southwest 418 481 34,000  Level Memphis Center
Mon 01:28:32 PM 35.7533 -89.3319 228° Southwest 412 474 34,000  Level Memphis Center
Mon 01:29:33 PM 35.6792 -89.4353 229° Southwest 405 466 34,000  Level Memphis Center
Mon 01:30:35 PM 35.5969 -89.5300 223° Southwest 405 466 34,000  Level Memphis Center
Mon 01:31:36 PM 35.5056 -89.6144 217° Southwest 413 475 34,000  Level Memphis Center
Mon 01:32:38 PM 35.4158 -89.6967 217° Southwest 406 467 34,000  Level Memphis Center
Mon 01:33:39 PM 35.3069 -89.7953 216° Southwest 405 466 34,000  Level Memphis Center
Mon 01:34:41 PM 35.2169 -89.8772 217° Southwest 405 466 34,000  Level Memphis Center
Mon 01:35:42 PM 35.1261 -89.9586 216° Southwest 405 466 34,000  Level Memphis Center
Mon 01:36:44 PM 35.0350 -90.0425 217° Southwest 405 466 34,000  Level Memphis Center
Mon 01:37:45 PM 34.9439 -90.1247 217° Southwest 406 467 34,000  Level Memphis Center
Mon 01:38:47 PM 34.8517 -90.2064 216° Southwest 406 467 34,000  Level Memphis Center
Mon 01:39:48 PM 34.7606 -90.2886 217° Southwest 406 467 34,000  Level Memphis Center
Mon 01:40:50 PM 34.6681 -90.3697 216° Southwest 407 468 34,000  Level Memphis Center
Mon 01:41:51 PM 34.5650 -90.4622 216° Southwest 407 468 34,000  Level Memphis Center
Mon 01:42:53 PM 34.4750 -90.5419 216° Southwest 405 466 34,000  Level Memphis Center
Mon 01:43:54 PM 34.3886 -90.6186 216° Southwest 395 455 34,000  Level Memphis Center
Mon 01:44:56 PM 34.3028 -90.6942 216° Southwest 387 445 34,000  Level Memphis Center
Mon 01:45:57 PM 34.2161 -90.7711 216° Southwest 387 445 34,000  Level Memphis Center
Mon 01:46:59 PM 34.1278 -90.8481 216° Southwest 391 450 34,000  Level Memphis Center
Mon 01:48:00 PM 34.0228 -90.9397 216° Southwest 391 450 34,000  Level Memphis Center
Mon 01:49:02 PM 33.9344 -91.0158 216° Southwest 391 450 34,000  Level Memphis Center
Mon 01:50:03 PM 33.8467 -91.0931 216° Southwest 391 450 34,000  Level Memphis Center
Mon 01:51:05 PM 33.7586 -91.1689 216° Southwest 391 450 34,000  Level Memphis Center
Mon 01:52:06 PM 33.6706 -91.2453 216° Southwest 391 450 34,000  Level Memphis Center
Mon 01:53:08 PM 33.5808 -91.3219 215° Southwest 392 451 34,000  Level Memphis Center
Mon 01:54:09 PM 33.4950 -91.3958 216° Southwest 389 448 34,000  Level Memphis Center
Mon 01:55:11 PM 33.3911 -91.4858 216° Southwest 387 445 34,000  Level Memphis Center
Mon 01:56:12 PM 33.3033 -91.5606 215° Southwest 388 447 34,000  Level Memphis Center
Mon 01:57:14 PM 33.2153 -91.6356 215° Southwest 388 447 34,000  Level Memphis Center
Mon 01:58:15 PM 33.1278 -91.7106 216° Southwest 388 447 34,000  Level Memphis Center
Mon 01:59:17 PM 33.0422 -91.7828 215° Southwest 386 444 34,000  Level Memphis Center
Mon 02:00:18 PM 32.9586 -91.8550 216° Southwest 381 438 34,000  Level Memphis Center
Mon 02:01:19 PM 32.8717 -91.9283 215° Southwest 381 438 34,000  Level Memphis Center
Mon 02:02:01 PM 32.8031 -91.9864 215° Southwest 386 444 34,000  Level Fort Worth Center
Mon 02:03:04 PM 32.7139 -92.0594 215° Southwest 387 445 34,000  Level Fort Worth Center
Mon 02:04:06 PM 32.6114 -92.1461 215° Southwest 389 448 34,000  Level Fort Worth Center
Mon 02:05:08 PM 32.5225 -92.2203 215° Southwest 389 448 34,000  Level Fort Worth Center
Mon 02:06:10 PM 32.4353 -92.2931 215° Southwest 387 445 34,000  Level Fort Worth Center
Mon 02:07:12 PM 32.3497 -92.3656 216° Southwest 381 438 34,000  Level Fort Worth Center
Mon 02:07:56 PM 32.2894 -92.4158 215° Southwest 384 442 34,000  Level Houston Center
Mon 02:08:58 PM 32.1853 -92.5014 215° Southwest 382 440 34,000  Level Houston Center
Mon 02:10:01 PM 32.0981 -92.5744 215° Southwest 382 440 34,000  Level Houston Center
Mon 02:11:03 PM 32.0108 -92.6467 215° Southwest 382 440 34,000  Level Houston Center
Mon 02:12:05 PM 31.9269 -92.7206 217° Southwest 381 438 34,000  Level Houston Center
Mon 02:13:07 PM 31.8464 -92.7997 220° Southwest 380 437 34,000  Level Houston Center
Mon 02:14:09 PM 31.7486 -92.8939 219° Southwest 380 437 34,000  Level Houston Center
Mon 02:15:11 PM 31.6669 -92.9722 219° Southwest 379 436 34,000  Level Houston Center
Mon 02:16:14 PM 31.5853 -93.0519 220° Southwest 380 437 34,000  Level Houston Center
Mon 02:17:16 PM 31.5031 -93.1300 219° Southwest 380 437 34,000  Level Houston Center
Mon 02:18:18 PM 31.4217 -93.2094 220° Southwest 380 437 34,000  Level Houston Center
Mon 02:19:20 PM 31.3336 -93.2944 220° Southwest 382 440 34,000  Level Houston Center
Mon 02:20:22 PM 31.2400 -93.3817 219° Southwest 382 440 34,000  Level Houston Center
Mon 02:21:24 PM 31.1581 -93.4617 220° Southwest 382 440 34,000 -432 Level Houston Center
Mon 02:22:27 PM 31.0744 -93.5392 218° Southwest 383 441 33,100 -1,344 Descending Houston Center
Mon 02:23:29 PM 30.9925 -93.6181 220° Southwest 383 441 31,200 -1,887 Descending Houston Center
Mon 02:24:31 PM 30.9069 -93.6992 219° Southwest 394 453 29,200 -2,274 Descending Houston Center
Mon 02:25:33 PM 30.7994 -93.8011 219° Southwest 414 476 26,500 -2,419 Descending Houston Center
Mon 02:26:35 PM 30.7092 -93.8847 219° Southwest 416 479 24,200 -2,226 Descending Houston Center
Mon 02:27:37 PM 30.6222 -93.9669 219° Southwest 410 472 21,900 -2,064 Descending Houston Center
Mon 02:28:40 PM 30.5381 -94.0458 219° Southwest 398 458 19,900 -2,108 Descending Houston Center
Mon 02:28:51 PM 30.5117 -94.0708 219° Southwest 391 450 19,300 -2,032 Descending Houston Center
Mon 02:29:42 PM 30.4397 -94.1375 219° Southwest 385 443 17,800 -1,745 Descending Houston Center
Mon 02:29:46 PM 30.4328 -94.1444 221° Southwest 382 440 17,700 -2,032 Descending Houston Center
Mon 02:30:44 PM 30.3533 -94.2189 219° Southwest 374 430 15,700 -2,066 Descending Houston Center
Mon 02:30:47 PM 30.3558 -94.2153 51° Northeast 359 413 15,600 -2,129 Descending Houston Center
Mon 02:31:46 PM 30.2853 -94.2814 219° Southwest 358 412 13,500 -2,262 Descending Houston Center
Mon 02:31:48 PM 30.2769 -94.2889 218° Southwest 352 405 13,300 -1,548 Descending Houston Center
Mon 02:32:48 PM 30.2128 -94.3503 220° Southwest 343 395 11,900 -1,254 Descending Houston Center
Mon 02:32:55 PM 30.2031 -94.3686 238° Southwest 305 351 11,900 -968 Level Houston Center
Mon 02:33:50 PM 30.1583 -94.4253 228° Southwest 311 358 10,900 -1,179 Descending Houston Center
Mon 02:34:52 PM 30.1047 -94.4931 228° Southwest 289 333 9,600 -1,344 Descending Houston Center
Mon 02:35:55 PM 30.0589 -94.5722 236° Southwest 257 296 8,100 -1,293 Descending Houston Center
Mon 02:36:48 PM 30.0358 -94.6369 248° West 247 284 7,100 -1,161 Descending Houston Center
Mon 02:36:57 PM 30.0342 -94.6456 257° West 244 281 6,900 -1,254 Descending Houston Center
Mon 02:37:55 PM 30.0081 -94.7178 247° West 240 276 5,700 -1,161 Descending Houston Center
Mon 02:37:59 PM 30.0092 -94.7158 57° Northeast 243 280 5,700 -1,091 Level Houston Center
Mon 02:39:01 PM 29.9867 -94.7906 251° West 243 280 4,500 -1,071 Descending Houston Center
Mon 02:39:51 PM 29.9781 -94.8664 263° West 253 291 3,700 -968 Descending Houston Center
Mon 02:40:03 PM 29.9772 -94.8683 244° Southwest 245 282 3,500 -655 Descending Houston Center
Mon 02:40:46 PM 29.9767 -94.9414 270° West 257 296 3,100 -484 Descending Houston Center
Mon 02:41:05 PM 29.9772 -94.9664 271° West 252 290 3,000  Descending Houston Center
Mon 02:41:47 PM 29.9781 -95.0231 271° West 256 295 3,100  Climbing Houston Center
Mon 02:42:08 PM 29.9772 -95.0483 268° West 253 291 3,000  Descending Houston Center
Mon 02:42:54 PM 29.9767 -95.1197 270° West 260 299 3,100 -97 Climbing Houston Center
Mon 02:43:10 PM 29.9767 -95.1308 270° West 255 293 2,900 -984 Descending Houston Center
Mon 02:43:55 PM 29.9775 -95.1969 271° West 223 257 2,100 -1,065 Descending Houston Center
Mon 02:44:12 PM 29.9772 -95.2067 268° West 252 290 1,800 -964 Descending Houston Center
Mon 02:44:51 PM 29.9764 -95.2525 269° West 156 180 1,200 -871 Descending Houston Center
Mon 02:45:14 PM 29.9767 -95.2608 272° West 200 230 900 -565 Descending Houston Center
Mon 02:46:16 PM 29.9789 -95.3086 273° West 177 204 400 -484 Descending Houston Center

Login

Don't have an account? Register now (free) for customized features, flight alerts, and more!